Time;durP1;ratioP1;P1;durP2;ratioP2;P2;SDS_P1;SDS_P2;PMS_P1;PMS_P2;Temp;Humidity;BMP_temperature;BMP_pressure;BME280_temperature;BME280_humidity;BME280_pressure;Samples;Min_cycle;Max_cycle;Signal;HPM_P1;HPM_P2
2023/04/01 00:01:44;;;;;;;;;;;4.00;99.90;;;;;;5096849;28;19948;-76
2023/04/01 00:04:10;;;;;;;;;;;4.00;99.90;;;;;;5096069;28;19916;-75
2023/04/01 00:06:36;;;;;;;;;;;4.00;99.90;;;;;;5095379;28;19919;-76
2023/04/01 00:09:01;;;;;;;;;;;4.00;99.90;;;;;;5095422;28;20261;-76
2023/04/01 00:11:27;;;;;;;;;;;4.10;99.90;;;;;;5096726;28;20006;-76
2023/04/01 00:13:53;;;;;;;;;;;4.10;99.90;;;;;;5096312;28;19909;-76
2023/04/01 00:16:18;;;;;;;;;;;4.10;99.90;;;;;;5096595;28;19914;-76
2023/04/01 00:18:44;;;;;;;;;;;4.10;99.90;;;;;;5096049;28;19962;-75
2023/04/01 00:21:09;;;;;;;;;;;4.20;99.90;;;;;;5096551;28;20004;-76
2023/04/01 00:23:35;;;;;;;;;;;4.20;99.90;;;;;;5096029;28;19959;-76
2023/04/01 00:26:02;;;;;;;;;;;4.20;99.90;;;;;;5096355;28;20318;-76
2023/04/01 00:28:28;;;;;;;;;;;4.20;99.90;;;;;;5094829;28;19958;-76
2023/04/01 00:30:53;;;;;;;;;;;4.20;99.90;;;;;;5096034;28;19958;-76
2023/04/01 00:33:19;;;;;;;;;;;4.20;99.90;;;;;;5095619;28;19991;-75
2023/04/01 00:35:46;;;;;;;;;;;4.20;99.90;;;;;;5096427;28;19919;-76
2023/04/01 00:38:12;;;;;;;;;;;4.20;99.90;;;;;;5095753;28;20283;-76
2023/04/01 00:40:39;;;;;;;;;;;4.20;99.90;;;;;;5095823;28;19915;-76
2023/04/01 00:43:13;;;;;;;;;;;4.20;99.90;;;;;;5094310;28;19926;-75
2023/04/01 00:45:40;;;;;;;;;;;4.20;99.90;;;;;;5095667;28;19908;-76
2023/04/01 00:48:09;;;;;;;;;;;4.20;99.90;;;;;;5095832;28;19917;-76
2023/04/01 00:50:35;;;;;;;;;;;4.20;99.90;;;;;;5095498;28;20007;-76
2023/04/01 00:53:01;;;;;;;;;;;4.10;99.90;;;;;;5094252;28;19957;-76
2023/04/01 00:55:27;;;;;;;;;;;4.10;99.90;;;;;;5096140;28;20283;-76
2023/04/01 00:57:53;;;;;;;;;;;4.10;99.90;;;;;;5095488;28;20365;-76
2023/04/01 01:00:21;;;;;;;;;;;4.10;99.90;;;;;;5095764;28;19913;-76
2023/04/01 01:02:47;;;;;;;;;;;4.10;99.90;;;;;;5095233;28;20356;-76
2023/04/01 01:05:14;;;;;;;;;;;4.10;99.90;;;;;;5093572;28;19912;-75
2023/04/01 01:07:49;;;;;;;;;;;4.10;99.90;;;;;;5094289;28;20421;-76
2023/04/01 01:10:20;;;;;;;;;;;4.10;99.90;;;;;;5095076;28;20312;-76
2023/04/01 01:12:53;;;;;;;;;;;4.10;99.90;;;;;;5094093;28;19915;-75
2023/04/01 01:15:24;;;;;;;;;;;4.10;99.90;;;;;;5094959;28;19916;-76
2023/04/01 01:18:09;;;;;;;;;;;4.10;99.90;;;;;;5091538;28;19915;-75
2023/04/01 01:20:53;;;;;;;;;;;4.20;99.90;;;;;;5094753;28;20413;-75
2023/04/01 01:23:25;;;;;;;;;;;4.20;99.90;;;;;;5093381;28;19982;-76
2023/04/01 01:25:51;;;;;;;;;;;4.20;99.90;;;;;;5093618;28;19915;-75
2023/04/01 01:28:25;;;;;;;;;;;4.20;99.90;;;;;;5094829;28;19908;-75
2023/04/01 01:31:00;;;;;;;;;;;4.20;99.90;;;;;;5094784;28;19919;-76
2023/04/01 01:33:34;;;;;;;;;;;4.20;99.90;;;;;;5094488;28;19924;-75
2023/04/01 01:36:01;;;;;;;;;;;4.20;99.90;;;;;;5094566;28;19939;-76
2023/04/01 01:38:28;;;;;;;;;;;4.20;99.90;;;;;;5094527;28;20390;-76
2023/04/01 01:40:57;;;;;;;;;;;4.30;99.90;;;;;;5092831;28;20360;-75
2023/04/01 01:43:24;;;;;;;;;;;4.40;99.90;;;;;;5093875;28;20331;-75
2023/04/01 01:46:01;;;;;;;;;;;4.40;99.90;;;;;;5092751;28;20299;-75
2023/04/01 01:48:27;;;;;;;;;;;4.30;99.90;;;;;;5094063;28;19908;-75
2023/04/01 01:50:53;;;;;;;;;;;4.30;99.90;;;;;;5094293;28;20372;-75
2023/04/01 01:53:18;;;;;;;;;;;4.20;99.90;;;;;;5094591;28;19919;-76
2023/04/01 01:55:45;;;;;;;;;;;4.20;99.90;;;;;;5094889;28;20371;-76
2023/04/01 01:58:17;;;;;;;;;;;4.20;99.90;;;;;;5094490;28;19912;-76
2023/04/01 02:00:44;;;;;;;;;;;4.20;99.90;;;;;;5094768;28;19908;-76
2023/04/01 02:03:11;;;;;;;;;;;4.20;99.90;;;;;;5092986;28;20007;-76
2023/04/01 02:05:37;;;;;;;;;;;4.20;99.90;;;;;;5093284;28;20291;-75
2023/04/01 02:08:09;;;;;;;;;;;4.20;99.90;;;;;;5093130;28;19908;-76
2023/04/01 02:10:37;;;;;;;;;;;4.20;99.90;;;;;;5094394;28;19915;-75
2023/04/01 02:13:06;;;;;;;;;;;4.20;99.90;;;;;;5092918;28;20371;-75
2023/04/01 02:15:33;;;;;;;;;;;4.30;99.90;;;;;;5094677;28;19999;-76
2023/04/01 02:17:58;;;;;;;;;;;4.20;99.90;;;;;;5094213;28;19918;-75
2023/04/01 02:20:24;;;;;;;;;;;4.20;99.90;;;;;;5093963;28;20291;-75
2023/04/01 02:22:52;;;;;;;;;;;4.20;99.90;;;;;;5094217;28;19908;-75
2023/04/01 02:25:20;;;;;;;;;;;4.20;99.90;;;;;;5093016;28;19915;-75
2023/04/01 02:27:46;;;;;;;;;;;4.20;99.90;;;;;;5094456;28;20284;-75
2023/04/01 02:30:12;;;;;;;;;;;4.20;99.90;;;;;;5092857;28;19912;-75
2023/04/01 02:32:38;;;;;;;;;;;4.10;99.90;;;;;;5094199;28;19930;-75
2023/04/01 02:35:06;;;;;;;;;;;4.10;99.90;;;;;;5093934;28;19951;-75
2023/04/01 02:37:31;;;;;;;;;;;4.10;99.90;;;;;;5094221;28;19908;-75
2023/04/01 02:40:00;;;;;;;;;;;4.00;99.90;;;;;;5094065;28;19961;-76
2023/04/01 02:42:26;;;;;;;;;;;4.00;99.90;;;;;;5092829;28;19991;-76
2023/04/01 02:44:52;;;;;;;;;;;4.00;99.90;;;;;;5093316;28;19924;-75
2023/04/01 02:47:17;;;;;;;;;;;4.10;99.90;;;;;;5094126;28;19960;-76
2023/04/01 02:49:43;;;;;;;;;;;4.10;99.90;;;;;;5093959;28;19919;-75
2023/04/01 02:52:08;;;;;;;;;;;4.10;99.90;;;;;;5094038;28;19908;-75
2023/04/01 02:54:34;;;;;;;;;;;4.10;99.90;;;;;;5094000;28;20372;-75
2023/04/01 02:56:59;;;;;;;;;;;4.10;99.90;;;;;;5094513;28;20371;-76
2023/04/01 02:59:25;;;;;;;;;;;4.20;99.90;;;;;;5094217;28;20061;-76
2023/04/01 03:01:50;;;;;;;;;;;4.20;99.90;;;;;;5094382;28;19912;-76
2023/04/01 03:04:16;;;;;;;;;;;4.20;99.90;;;;;;5093606;28;19912;-75
2023/04/01 03:06:41;;;;;;;;;;;4.20;99.90;;;;;;5094213;28;19912;-76
2023/04/01 03:09:07;;;;;;;;;;;4.20;99.90;;;;;;5094017;28;20510;-75
2023/04/01 03:11:33;;;;;;;;;;;4.20;99.90;;;;;;5093776;28;19912;-75
2023/04/01 03:13:58;;;;;;;;;;;4.20;99.90;;;;;;5093556;28;19912;-75
2023/04/01 03:16:24;;;;;;;;;;;4.20;99.90;;;;;;5094073;28;19913;-75
2023/04/01 03:18:52;;;;;;;;;;;4.30;99.90;;;;;;5093658;28;19962;-74
2023/04/01 03:21:19;;;;;;;;;;;4.30;99.90;;;;;;5093660;28;19992;-75
2023/04/01 03:23:45;;;;;;;;;;;4.30;99.90;;;;;;5093431;28;20355;-75
2023/04/01 03:26:10;;;;;;;;;;;4.30;99.90;;;;;;5093454;28;19913;-75
2023/04/01 03:28:36;;;;;;;;;;;4.40;99.90;;;;;;5093471;28;19919;-75
2023/04/01 03:31:01;;;;;;;;;;;4.40;99.90;;;;;;5095186;28;19912;-75
2023/04/01 03:33:27;;;;;;;;;;;4.40;99.90;;;;;;5096939;28;20053;-75
2023/04/01 03:35:52;;;;;;;;;;;4.30;99.90;;;;;;5096849;28;19919;-75
2023/04/01 03:38:18;;;;;;;;;;;4.30;99.90;;;;;;5097102;28;20291;-75
2023/04/01 03:40:44;;;;;;;;;;;4.30;99.90;;;;;;5096957;28;20394;-75
2023/04/01 03:43:10;;;;;;;;;;;4.30;99.90;;;;;;5096720;28;19920;-75
2023/04/01 03:45:36;;;;;;;;;;;4.30;99.90;;;;;;5097397;28;19957;-75
2023/04/01 03:48:02;;;;;;;;;;;4.30;99.90;;;;;;5097155;28;19908;-76
2023/04/01 03:50:27;;;;;;;;;;;4.30;99.90;;;;;;5096549;28;19970;-75
2023/04/01 03:52:53;;;;;;;;;;;4.30;99.90;;;;;;5096727;28;19912;-76
2023/04/01 03:55:19;;;;;;;;;;;4.30;99.90;;;;;;5096741;28;19962;-76
2023/04/01 03:57:44;;;;;;;;;;;4.30;99.90;;;;;;5096624;28;19918;-75
2023/04/01 04:00:10;;;;;;;;;;;4.30;99.90;;;;;;5096759;28;19912;-75
2023/04/01 04:02:35;;;;;;;;;;;4.30;99.90;;;;;;5095198;28;19912;-75
2023/04/01 04:05:01;;;;;;;;;;;4.30;99.90;;;;;;5096275;28;19919;-75
2023/04/01 04:07:27;;;;;;;;;;;4.30;99.90;;;;;;5096395;28;19995;-75
2023/04/01 04:09:52;;;;;;;;;;;4.30;99.90;;;;;;5095055;28;19923;-75
2023/04/01 04:12:18;;;;;;;;;;;4.30;99.90;;;;;;5096148;28;19991;-75
2023/04/01 04:14:44;;;;;;;;;;;4.40;99.90;;;;;;5096529;28;19913;-75
2023/04/01 04:17:15;;;;;;;;;;;4.40;99.90;;;;;;5095049;28;19912;-76
2023/04/01 04:19:41;;;;;;;;;;;4.40;99.90;;;;;;5096296;28;19914;-75
2023/04/01 04:22:07;;;;;;;;;;;4.30;99.90;;;;;;5096603;28;19916;-75
2023/04/01 04:24:36;;;;;;;;;;;4.40;99.90;;;;;;5096088;28;19919;-76
2023/04/01 04:27:02;;;;;;;;;;;4.30;99.90;;;;;;5095948;28;19942;-76
2023/04/01 04:29:27;;;;;;;;;;;4.30;99.90;;;;;;5096027;28;20364;-76
2023/04/01 04:31:53;;;;;;;;;;;4.30;99.90;;;;;;5096304;28;19965;-75
2023/04/01 04:34:18;;;;;;;;;;;4.30;99.90;;;;;;5095947;28;19924;-75
2023/04/01 04:36:44;;;;;;;;;;;4.40;99.90;;;;;;5096037;28;19908;-76
2023/04/01 04:39:10;;;;;;;;;;;4.40;99.90;;;;;;5095734;28;19908;-76
2023/04/01 04:41:36;;;;;;;;;;;4.40;99.90;;;;;;5095688;28;20406;-76
2023/04/01 04:44:02;;;;;;;;;;;4.40;99.90;;;;;;5075267;28;20475;-76
2023/04/01 04:46:28;;;;;;;;;;;4.40;99.90;;;;;;5075626;28;19955;-76
2023/04/01 04:48:53;;;;;;;;;;;4.40;99.90;;;;;;5075299;28;19912;-76
2023/04/01 04:51:19;;;;;;;;;;;4.40;99.90;;;;;;5074950;28;19931;-76
2023/04/01 04:53:46;;;;;;;;;;;4.40;99.90;;;;;;5075066;28;19909;-76
2023/04/01 04:56:12;;;;;;;;;;;4.40;99.90;;;;;;5075091;28;19923;-76
2023/04/01 04:58:38;;;;;;;;;;;4.40;99.90;;;;;;5075405;28;20284;-76
2023/04/01 05:01:07;;;;;;;;;;;4.40;99.90;;;;;;5075045;28;19916;-76
2023/04/01 05:03:33;;;;;;;;;;;4.40;99.90;;;;;;5074964;28;19948;-76
2023/04/01 05:05:58;;;;;;;;;;;4.40;99.90;;;;;;5074713;28;19952;-76
2023/04/01 05:08:24;;;;;;;;;;;4.40;99.90;;;;;;5073625;28;20391;-76
2023/04/01 05:10:49;;;;;;;;;;;4.40;99.90;;;;;;5073568;28;20334;-76
2023/04/01 05:13:15;;;;;;;;;;;4.40;99.90;;;;;;5088401;28;19912;-76
2023/04/01 05:15:41;;;;;;;;;;;4.40;99.90;;;;;;5095281;28;19912;-76
2023/04/01 05:18:06;;;;;;;;;;;4.40;99.90;;;;;;5094262;28;19937;-76
2023/04/01 05:20:32;;;;;;;;;;;4.40;99.90;;;;;;5093212;28;19916;-76
2023/04/01 05:22:58;;;;;;;;;;;4.40;99.90;;;;;;5089815;28;19924;-76
2023/04/01 05:25:23;;;;;;;;;;;4.40;99.90;;;;;;5078511;28;20017;-76
2023/04/01 05:27:49;;;;;;;;;;;4.40;99.90;;;;;;5073015;28;19970;-76
2023/04/01 05:30:14;;;;;;;;;;;4.40;99.90;;;;;;5072482;28;19920;-76
2023/04/01 05:32:40;;;;;;;;;;;4.40;99.90;;;;;;5073109;28;19962;-76
2023/04/01 05:35:06;;;;;;;;;;;4.40;99.90;;;;;;5073885;28;19920;-76
2023/04/01 05:37:33;;;;;;;;;;;4.40;99.90;;;;;;5074208;28;20397;-76
2023/04/01 05:39:59;;;;;;;;;;;4.40;99.90;;;;;;5074641;28;20328;-76
2023/04/01 05:42:25;;;;;;;;;;;4.40;99.90;;;;;;5080790;28;19938;-76
2023/04/01 05:44:50;;;;;;;;;;;4.50;99.90;;;;;;5094467;28;20431;-76
2023/04/01 05:47:16;;;;;;;;;;;4.50;99.90;;;;;;5094453;28;19912;-76
2023/04/01 05:49:41;;;;;;;;;;;4.50;99.90;;;;;;5094384;28;19915;-76
2023/04/01 05:52:07;;;;;;;;;;;4.50;99.90;;;;;;5094850;28;20390;-76
2023/04/01 05:54:32;;;;;;;;;;;4.50;99.90;;;;;;5092914;28;20387;-76
2023/04/01 05:56:58;;;;;;;;;;;4.60;99.90;;;;;;5094282;28;19912;-76
2023/04/01 05:59:24;;;;;;;;;;;4.60;99.90;;;;;;5094250;28;19908;-76
2023/04/01 06:01:49;;;;;;;;;;;4.60;99.90;;;;;;5094526;28;19912;-76
2023/04/01 06:04:16;;;;;;;;;;;4.60;99.90;;;;;;5092630;28;20014;-75
2023/04/01 06:06:41;;;;;;;;;;;4.70;99.90;;;;;;5094168;28;19955;-76
2023/04/01 06:09:13;;;;;;;;;;;4.70;99.90;;;;;;5094466;28;20379;-76
2023/04/01 06:11:38;;;;;;;;;;;4.70;99.90;;;;;;5094027;28;19919;-76
2023/04/01 06:14:10;;;;;;;;;;;4.80;99.90;;;;;;5094002;28;19933;-76
2023/04/01 06:16:42;;;;;;;;;;;4.80;99.90;;;;;;5094042;28;20433;-76
2023/04/01 06:19:10;;;;;;;;;;;4.80;99.90;;;;;;5094023;28;19908;-76
2023/04/01 06:21:51;;;;;;;;;;;4.90;99.90;;;;;;5092494;28;19908;-76
2023/04/01 06:24:35;;;;;;;;;;;4.90;99.90;;;;;;5093743;28;19912;-76
2023/04/01 06:27:06;;;;;;;;;;;4.90;99.90;;;;;;5092581;28;19908;-76
2023/04/01 06:29:46;;;;;;;;;;;4.90;99.90;;;;;;5094271;28;19908;-76
2023/04/01 06:32:13;;;;;;;;;;;5.00;99.90;;;;;;5092432;28;19993;-76
2023/04/01 06:34:44;;;;;;;;;;;5.00;99.90;;;;;;5093629;28;19922;-76
2023/04/01 06:37:20;;;;;;;;;;;5.10;99.90;;;;;;5092554;28;19908;-76
2023/04/01 06:39:58;;;;;;;;;;;5.10;99.90;;;;;;5094160;28;19912;-76
2023/04/01 06:42:42;;;;;;;;;;;5.20;99.90;;;;;;5092396;28;19908;-76
2023/04/01 06:45:11;;;;;;;;;;;5.20;99.90;;;;;;5094318;28;19970;-76
2023/04/01 06:47:39;;;;;;;;;;;5.30;99.90;;;;;;5093827;28;19953;-76
2023/04/01 06:50:23;;;;;;;;;;;5.40;99.90;;;;;;5093485;28;19991;-76
2023/04/01 06:53:04;;;;;;;;;;;5.40;99.90;;;;;;5093604;28;19912;-76
2023/04/01 06:55:37;;;;;;;;;;;5.50;99.90;;;;;;5093685;28;19976;-76
2023/04/01 06:58:04;;;;;;;;;;;5.60;99.90;;;;;;5093674;28;19922;-76
2023/04/01 07:00:32;;;;;;;;;;;5.60;99.90;;;;;;5093632;28;19958;-76
2023/04/01 07:03:10;;;;;;;;;;;5.70;99.90;;;;;;5093839;28;19912;-76
2023/04/01 07:05:35;;;;;;;;;;;5.70;99.90;;;;;;5092897;28;19991;-76
2023/04/01 07:08:03;;;;;;;;;;;5.80;99.90;;;;;;5097480;28;19962;-76
2023/04/01 07:10:35;;;;;;;;;;;5.80;99.90;;;;;;5097432;28;19956;-76
2023/04/01 07:13:04;;;;;;;;;;;5.90;99.90;;;;;;5097194;28;19908;-76
2023/04/01 07:15:42;;;;;;;;;;;5.90;99.90;;;;;;5097602;28;20003;-76
2023/04/01 07:18:11;;;;;;;;;;;5.90;99.90;;;;;;5096045;28;19954;-76
2023/04/01 07:20:37;;;;;;;;;;;6.00;99.90;;;;;;5098668;28;19908;-75
2023/04/01 07:23:05;;;;;;;;;;;6.00;99.90;;;;;;5097631;28;19912;-75
2023/04/01 07:25:34;;;;;;;;;;;6.10;99.90;;;;;;5097927;28;20001;-76
2023/04/01 07:28:01;;;;;;;;;;;6.10;99.90;;;;;;5098054;28;19908;-75
2023/04/01 07:30:30;;;;;;;;;;;6.20;99.90;;;;;;5097635;28;19908;-76
2023/04/01 07:33:04;;;;;;;;;;;6.30;99.90;;;;;;5097591;28;19920;-75
2023/04/01 07:35:33;;;;;;;;;;;6.40;99.90;;;;;;5095913;28;19944;-75
2023/04/01 07:38:04;;;;;;;;;;;6.40;99.90;;;;;;5097372;28;19912;-76
2023/04/01 07:40:29;;;;;;;;;;;6.60;99.90;;;;;;5097314;28;19909;-76
2023/04/01 07:42:55;;;;;;;;;;;6.70;99.90;;;;;;5096996;28;19965;-76
2023/04/01 07:45:24;;;;;;;;;;;6.80;99.90;;;;;;5097137;28;19991;-76
2023/04/01 07:48:01;;;;;;;;;;;6.90;99.90;;;;;;5097161;28;19908;-76
2023/04/01 07:50:32;;;;;;;;;;;7.00;99.90;;;;;;5095518;28;20007;-76
2023/04/01 07:53:16;;;;;;;;;;;7.10;99.90;;;;;;5096872;28;20320;-76
2023/04/01 07:55:45;;;;;;;;;;;7.20;99.90;;;;;;5096936;28;19915;-76
2023/04/01 07:58:19;;;;;;;;;;;7.30;99.90;;;;;;5097223;28;19909;-76
2023/04/01 08:00:51;;;;;;;;;;;7.30;99.90;;;;;;5097309;28;19999;-76
2023/04/01 08:03:17;;;;;;;;;;;7.40;99.90;;;;;;5096810;28;19912;-76
2023/04/01 08:05:57;;;;;;;;;;;7.40;99.90;;;;;;5096781;28;20279;-76
2023/04/01 08:08:29;;;;;;;;;;;7.40;99.90;;;;;;5096615;28;20066;-76
2023/04/01 08:10:57;;;;;;;;;;;7.40;99.90;;;;;;5096826;28;19915;-76
2023/04/01 08:13:23;;;;;;;;;;;7.40;99.90;;;;;;5096580;28;20375;-76
2023/04/01 08:15:48;;;;;;;;;;;7.50;99.90;;;;;;5096724;28;19919;-76
2023/04/01 08:18:20;;;;;;;;;;;7.50;99.90;;;;;;5096220;28;19923;-76
2023/04/01 08:20:52;;;;;;;;;;;7.60;99.90;;;;;;5096302;28;20268;-76
2023/04/01 08:23:32;;;;;;;;;;;7.60;99.90;;;;;;5096332;28;19912;-76
2023/04/01 08:26:04;;;;;;;;;;;7.60;99.90;;;;;;5096530;28;20283;-76
2023/04/01 08:28:33;;;;;;;;;;;7.60;99.90;;;;;;5096317;28;19931;-76
2023/04/01 08:31:11;;;;;;;;;;;7.60;99.90;;;;;;5095253;28;19920;-76
2023/04/01 08:33:38;;;;;;;;;;;7.70;99.90;;;;;;5096148;28;20366;-76
2023/04/01 08:36:07;;;;;;;;;;;7.80;99.90;;;;;;5095994;28;19908;-76
2023/04/01 08:38:38;;;;;;;;;;;7.90;99.90;;;;;;5096278;28;19908;-76
2023/04/01 08:41:20;;;;;;;;;;;8.00;99.90;;;;;;5096354;28;19957;-75
2023/04/01 08:43:48;;;;;;;;;;;8.10;99.90;;;;;;5094644;28;20390;-76
2023/04/01 08:46:19;;;;;;;;;;;8.30;99.90;;;;;;5096362;28;20002;-76
2023/04/01 08:48:45;;;;;;;;;;;8.30;99.90;;;;;;5096261;28;19908;-76
2023/04/01 08:51:13;;;;;;;;;;;8.40;99.90;;;;;;5095982;28;19987;-76
2023/04/01 08:53:57;;;;;;;;;;;8.50;99.90;;;;;;5096347;28;20342;-76
2023/04/01 08:56:46;;;;;;;;;;;8.60;99.90;;;;;;5096109;28;19962;-76
2023/04/01 08:59:30;;;;;;;;;;;8.70;99.90;;;;;;5096520;28;20367;-76
2023/04/01 09:02:09;;;;;;;;;;;8.90;99.90;;;;;;5096471;28;19961;-76
2023/04/01 09:04:35;;;;;;;;;;;9.00;99.90;;;;;;5096371;28;19913;-76
2023/04/01 09:07:27;;;;;;;;;;;9.10;99.90;;;;;;5095616;28;19908;-76
2023/04/01 09:10:12;;;;;;;;;;;9.20;99.90;;;;;;5094548;28;20283;-76
2023/04/01 09:12:45;;;;;;;;;;;9.40;99.90;;;;;;5095620;28;19908;-76
2023/04/01 09:15:20;;;;;;;;;;;9.50;99.90;;;;;;5096117;28;19908;-76
2023/04/01 09:17:51;;;;;;;;;;;9.60;99.90;;;;;;5094278;28;19915;-75
2023/04/01 09:20:36;;;;;;;;;;;9.80;99.90;;;;;;5095899;28;19932;-76
2023/04/01 09:23:04;;;;;;;;;;;9.90;99.90;;;;;;5094424;28;19995;-76
2023/04/01 09:25:49;;;;;;;;;;;10.00;99.90;;;;;;5096121;28;20006;-76
2023/04/01 09:28:14;;;;;;;;;;;10.10;99.90;;;;;;5095215;28;19931;-76
2023/04/01 09:30:57;;;;;;;;;;;10.20;99.90;;;;;;5095822;28;20367;-75
2023/04/01 09:46:56;;;;;;;2.63;1.23;;;10.40;99.90;;;;;;5133109;27;20803;-76
2023/04/01 09:49:56;;;;;;;2.78;1.30;;;10.90;99.90;;;;;;5132344;28;20031;-76
2023/04/01 09:52:36;;;;;;;3.90;2.10;;;10.90;99.90;;;;;;5130950;28;20030;-76
2023/04/01 09:55:46;;;;;;;4.00;2.35;;;11.00;99.90;;;;;;5132567;28;20031;-76
2023/04/01 09:58:19;;;;;;;3.33;2.08;;;11.00;99.90;;;;;;5132669;28;20015;-76
2023/04/01 10:00:59;;;;;;;3.10;1.38;;;11.20;99.90;;;;;;5131093;28;20038;-76
2023/04/01 10:04:08;;;;;;;2.38;1.40;;;11.30;99.90;;;;;;5131997;28;20027;-76
2023/04/01 10:06:52;;;;;;;3.60;1.20;;;11.40;99.90;;;;;;5102820;28;20088;-76
2023/04/01 10:09:55;;;;;;;2.58;1.33;;;11.50;99.90;;;;;;5132381;28;20058;-76
2023/04/01 10:12:29;;;;;;;1.50;0.80;;;11.60;99.90;;;;;;5131623;28;20439;-76
2023/04/01 10:15:20;;;;;;;3.53;0.73;;;11.70;99.90;;;;;;5131624;28;20110;-76
2023/04/01 10:18:06;;;;;;;1.27;0.55;;;11.70;99.90;;;;;;5130576;28;20033;-76
2023/04/01 10:20:53;;;;;;;1.35;0.60;;;11.80;99.90;;;;;;5131598;28;20106;-76
2023/04/01 10:23:37;;;;;;;1.05;0.63;;;11.90;99.90;;;;;;5131749;28;20404;-76
2023/04/01 10:26:17;;;;;;;2.75;0.82;;;12.10;99.90;;;;;;5131885;28;20032;-76
2023/04/01 10:29:04;;;;;;;2.38;0.60;;;12.30;99.90;;;;;;5131410;28;20041;-75
2023/04/01 10:31:56;;;;;;;0.70;0.40;;;12.40;99.90;;;;;;5131704;27;20019;-76
2023/04/01 10:34:28;;;;;;;0.85;0.35;;;12.60;99.90;;;;;;5146042;22;20122;-81
2023/04/01 10:36:57;;;;;;;0.98;0.40;;;12.60;99.90;;;;;;5131626;28;20076;-81
2023/04/01 10:39:44;;;;;;;1.92;0.60;;;12.70;99.90;;;;;;5131670;28;20431;-81
2023/04/01 10:42:46;;;;;;;1.27;0.50;;;12.70;99.90;;;;;;5131537;28;20045;-81
2023/04/01 10:45:24;;;;;;;1.30;0.60;;;12.60;99.90;;;;;;5131632;28;20145;-80
2023/04/01 10:48:02;;;;;;;1.08;0.60;;;12.60;99.90;;;;;;5117703;28;20104;-80
2023/04/01 10:50:37;;;;;;;1.95;0.40;;;12.80;99.90;;;;;;5099113;28;20027;-80
2023/04/01 10:53:23;;;;;;;1.83;0.60;;;13.00;99.90;;;;;;5117381;28;20016;-81
2023/04/01 10:56:34;;;;;;;1.27;0.40;;;13.10;99.90;;;;;;5117230;28;20107;-80
2023/04/01 10:59:28;;;;;;;2.00;0.57;;;13.10;99.90;;;;;;5068305;28;20452;-80
2023/04/01 11:02:00;;;;;;;0.80;0.40;;;13.20;99.90;;;;;;5099021;28;20106;-80
2023/04/01 11:04:51;;;;;;;1.50;0.40;;;13.30;99.90;;;;;;5098958;28;20508;-80
2023/04/01 11:07:42;;;;;;;1.23;0.50;;;13.30;99.90;;;;;;5099025;28;20038;-80
2023/04/01 11:10:40;;;;;;;2.10;0.57;;;13.40;99.90;;;;;;5117462;28;20477;-80
2023/04/01 11:13:38;;;;;;;1.52;0.55;;;13.50;99.90;;;;;;5099317;28;20042;-80
2023/04/01 11:16:03;;;;;;;1.35;0.30;;;13.60;99.90;;;;;;5092956;28;20081;-80
2023/04/01 11:19:21;;;;;;;1.52;0.40;;;13.60;99.90;;;;;;5117238;28;20015;-80
2023/04/01 11:22:18;;;;;;;1.25;0.50;;;13.70;99.90;;;;;;5044401;28;20060;-81
2023/04/01 11:24:49;;;;;;;1.88;0.65;;;13.80;99.90;;;;;;5117029;28;20123;-80
2023/04/01 11:27:52;;;;;;;1.08;0.50;;;13.90;99.90;;;;;;5116981;28;20435;-79
2023/04/01 11:30:37;;;;;;;0.82;0.30;;;14.10;99.90;;;;;;5117226;28;20030;-80
2023/04/01 11:33:28;;;;;;;0.75;0.40;;;14.10;98.10;;;;;;5117111;28;20474;-80
2023/04/01 11:36:16;;;;;;;1.13;0.40;;;13.90;95.90;;;;;;5116835;28;20035;-79
2023/04/01 11:38:56;;;;;;;0.50;0.20;;;13.90;96.40;;;;;;5116708;28;20103;-80
2023/04/01 11:41:45;;;;;;;1.10;0.30;;;13.80;94.40;;;;;;5099574;28;20072;-80
2023/04/01 11:44:11;;;;;;;0.77;0.30;;;13.80;93.20;;;;;;5117779;28;20039;-80
2023/04/01 11:46:46;;;;;;;0.80;0.30;;;13.70;94.40;;;;;;5098996;28;20508;-79
2023/04/01 11:49:17;;;;;;;0.57;0.30;;;13.70;94.90;;;;;;5099003;28;20016;-80
2023/04/01 11:52:02;;;;;;;0.63;0.32;;;13.70;96.40;;;;;;5098561;28;20028;-79
2023/04/01 11:54:42;;;;;;;1.65;0.30;;;13.70;96.20;;;;;;5098491;28;20076;-79
2023/04/01 11:57:50;;;;;;;0.80;0.50;;;13.80;93.80;;;;;;5116668;28;20473;-79
2023/04/01 12:00:28;;;;;;;1.95;0.73;;;13.70;88.20;;;;;;5105528;28;20035;-80
2023/04/01 12:03:21;;;;;;;1.45;0.70;;;13.60;91.50;;;;;;5116938;28;20045;-79
2023/04/01 12:05:56;;;;;;;1.00;0.30;;;13.50;91.00;;;;;;5116690;28;20019;-79
2023/04/01 12:08:38;;;;;;;0.77;0.30;;;13.50;90.20;;;;;;5098593;28;20073;-79
2023/04/01 12:11:10;;;;;;;1.35;0.25;;;13.50;86.00;;;;;;5098738;28;20034;-80
2023/04/01 12:14:10;;;;;;;0.60;0.30;;;13.50;89.60;;;;;;5098617;28;20525;-80
2023/04/01 12:17:09;;;;;;;0.73;0.30;;;13.40;87.30;;;;;;5098547;28;20494;-79
2023/04/01 12:19:38;;;;;;;1.77;0.55;;;13.40;87.20;;;;;;5098167;28;20106;-80
2023/04/01 12:22:06;;;;;;;1.15;0.30;;;13.30;90.20;;;;;;5116634;28;20376;-79
2023/04/01 12:25:04;;;;;;;0.40;0.30;;;13.20;91.30;;;;;;5116144;28;20030;-80
2023/04/01 12:27:53;;;;;;;0.65;0.35;;;13.10;90.90;;;;;;5101932;28;20036;-80
2023/04/01 12:30:34;;;;;;;1.02;0.32;;;13.10;93.10;;;;;;5116474;28;20027;-79
2023/04/01 12:33:17;;;;;;;0.98;0.30;;;13.10;90.00;;;;;;5116174;28;20080;-80
2023/04/01 12:36:01;;;;;;;0.50;0.30;;;13.10;90.60;;;;;;5115903;28;20031;-80
2023/04/01 12:38:57;;;;;;;2.33;0.57;;;13.20;92.00;;;;;;5116436;28;20020;-79
2023/04/01 12:41:47;;;;;;;0.25;0.20;;;13.20;91.10;;;;;;5116429;28;20026;-80
2023/04/01 12:44:36;;;;;;;1.13;0.40;;;13.20;90.90;;;;;;5098188;28;20027;-78
2023/04/01 12:47:05;;;;;;;0.28;0.28;;;13.20;90.90;;;;;;5116336;28;20023;-79
2023/04/01 12:49:49;;;;;;;0.50;0.30;;;13.30;91.60;;;;;;5098032;28;20023;-80
2023/04/01 12:52:52;;;;;;;1.45;0.30;;;13.40;90.30;;;;;;5115852;28;20016;-79
2023/04/01 12:55:39;;;;;;;0.60;0.20;;;13.50;90.20;;;;;;5097474;28;20077;-79
2023/04/01 12:58:39;;;;;;;0.93;0.32;;;13.40;90.80;;;;;;5097529;28;20025;-79
2023/04/01 13:01:50;;;;;;;0.70;0.30;;;13.40;90.10;;;;;;5116042;28;20030;-79
2023/04/01 13:04:31;;;;;;;0.40;0.30;;;13.40;90.40;;;;;;5097906;28;20035;-80
2023/04/01 13:07:21;;;;;;;1.30;0.55;;;13.40;91.00;;;;;;5116459;28;20019;-79
2023/04/01 13:09:59;;;;;;;0.75;0.30;;;13.40;88.60;;;;;;5116460;28;20020;-78
2023/04/01 13:12:44;;;;;;;1.92;0.70;;;13.40;90.10;;;;;;5116055;28;20020;-80
2023/04/01 13:15:40;;;;;;;1.33;0.57;;;13.50;88.80;;;;;;5116109;28;20016;-79
2023/04/01 13:18:12;;;;;;;0.45;0.30;;;13.60;90.30;;;;;;5115745;28;20032;-79
2023/04/01 13:20:45;;;;;;;1.00;0.40;;;13.90;86.20;;;;;;5115643;28;20024;-80
2023/04/01 13:23:15;;;;;;;1.95;0.40;;;14.10;82.80;;;;;;5115570;28;20031;-79
2023/04/01 13:25:43;;;;;;;0.68;0.25;;;14.20;83.10;;;;;;5098189;28;20051;-80
2023/04/01 13:28:19;;;;;;;0.20;0.20;;;14.20;77.30;;;;;;5116096;28;20504;-80
2023/04/01 13:30:53;;;;;;;0.10;0.10;;;14.20;74.20;;;;;;5115870;28;20027;-80
2023/04/01 13:33:58;;;;;;;0.32;0.17;;;14.10;73.00;;;;;;5115824;28;20059;-79
2023/04/01 13:36:32;;;;;;;0.65;0.20;;;14.00;76.00;;;;;;5115956;28;20024;-80
2023/04/01 13:39:22;;;;;;;0.20;0.20;;;14.00;70.90;;;;;;5116003;28;20015;-79
2023/04/01 13:42:03;;;;;;;0.20;0.20;;;13.80;76.00;;;;;;5116397;28;20051;-80
2023/04/01 13:44:54;;;;;;;0.28;0.20;;;13.60;78.30;;;;;;5115691;28;20020;-79
2023/04/01 13:47:28;;;;;;;1.60;0.20;;;13.50;78.70;;;;;;5115806;28;20035;-78
2023/04/01 13:50:20;;;;;;;0.20;0.20;;;13.30;77.80;;;;;;5116135;28;20023;-79
2023/04/01 13:53:27;;;;;;;0.20;0.10;;;13.30;81.50;;;;;;5104849;28;20088;-79
2023/04/01 13:55:59;;;;;;;0.63;0.30;;;13.20;81.50;;;;;;5097287;28;20494;-79
2023/04/01 13:58:48;;;;;;;0.85;0.30;;;13.00;84.60;;;;;;5097867;28;20020;-78
2023/04/01 14:01:37;;;;;;;0.70;0.30;;;12.90;85.10;;;;;;5117378;28;20036;-80
2023/04/01 14:04:27;;;;;;;0.52;0.20;;;12.80;86.30;;;;;;5098783;28;20011;-79
2023/04/01 14:07:06;;;;;;;0.38;0.20;;;12.70;89.10;;;;;;5115874;28;20026;-79
2023/04/01 14:09:47;;;;;;;0.25;0.20;;;12.60;86.00;;;;;;5115668;28;20105;-80
2023/04/01 14:12:38;;;;;;;0.40;0.20;;;12.60;87.00;;;;;;5097379;28;20024;-79
2023/04/01 14:15:25;;;;;;;1.23;0.50;;;12.60;87.80;;;;;;5116126;28;20068;-79
2023/04/01 14:18:17;;;;;;;0.50;0.30;;;12.50;89.20;;;;;;5116022;28;20046;-79
2023/04/01 14:20:43;;;;;;;0.60;0.40;;;12.40;89.70;;;;;;5115172;28;20098;-78
2023/04/01 14:23:27;;;;;;;0.20;0.20;;;12.40;85.30;;;;;;5100895;28;20024;-78
2023/04/01 14:26:28;;;;;;;0.32;0.30;;;12.30;81.90;;;;;;5119593;28;20035;-79
2023/04/01 14:29:19;;;;;;;0.32;0.20;;;12.30;85.70;;;;;;5119251;28;20053;-79
2023/04/01 14:32:05;;;;;;;0.10;0.10;;;12.20;86.40;;;;;;5119190;28;20092;-79
2023/04/01 14:35:18;;;;;;;1.88;0.60;;;12.10;89.30;;;;;;5101777;28;20031;-79
2023/04/01 14:38:03;;;;;;;0.38;0.20;;;11.90;89.20;;;;;;5082478;28;20494;-78
2023/04/01 14:40:43;;;;;;;0.20;0.15;;;11.80;90.00;;;;;;5119325;28;20020;-79
2023/04/01 14:43:27;;;;;;;1.10;0.50;;;11.70;90.70;;;;;;5118857;28;20045;-79
2023/04/01 14:46:05;;;;;;;1.02;0.40;;;11.60;91.70;;;;;;5118966;28;20027;-79
2023/04/01 14:48:38;;;;;;;0.10;0.10;;;11.50;93.30;;;;;;5119541;28;20024;-80